createdAt,value
2022-09-26T00:30:10.163Z,1001.04
2022-09-26T00:30:50.503Z,1001.03
2022-09-26T00:31:30.915Z,1000.99
2022-09-26T00:32:11.370Z,1000.98
2022-09-26T00:32:51.800Z,1000.97
2022-09-26T00:33:32.286Z,1000.93
2022-09-26T00:34:12.797Z,1000.93
2022-09-26T00:34:53.263Z,1000.92
2022-09-26T00:35:33.810Z,1000.92
2022-09-26T00:36:14.362Z,1000.87
2022-09-26T00:36:54.968Z,1000.89
2022-09-26T00:37:35.424Z,1000.86
2022-09-26T00:40:34.214Z,1000.83
2022-09-26T00:41:14.699Z,1000.81
2022-09-26T00:41:55.152Z,1000.74
2022-09-26T00:42:35.626Z,1000.75
2022-09-26T00:43:16.131Z,1000.75
2022-09-26T00:44:37.005Z,1000.73
2022-09-26T00:45:17.494Z,1000.69
2022-09-26T00:45:57.913Z,1000.68
2022-09-26T00:46:38.417Z,1000.66
2022-09-26T00:47:18.902Z,1000.65
2022-09-26T00:47:59.400Z,1000.64
2022-09-26T00:48:39.836Z,1000.59
2022-09-26T00:49:20.292Z,1000.59
2022-09-26T00:50:00.796Z,1000.58
2022-09-26T00:50:41.282Z,1000.57
2022-09-26T00:51:21.790Z,1000.57
2022-09-26T00:52:02.243Z,1000.55
2022-09-26T00:52:42.706Z,1000.55
2022-09-26T00:53:23.207Z,1000.55
2022-09-26T00:54:44.232Z,1000.54
2022-09-26T00:56:57.483Z,1000.53
2022-09-26T00:57:38.010Z,1000.52
2022-09-26T00:58:18.466Z,1000.56
2022-09-26T00:58:58.974Z,1000.55
2022-09-26T00:59:39.489Z,1000.56
2022-09-26T01:00:19.991Z,1000.6
2022-09-26T01:01:00.590Z,1000.56
2022-09-26T01:02:21.614Z,1000.55
2022-09-26T01:03:01.984Z,1000.57
2022-09-26T01:03:42.494Z,1000.57
2022-09-26T01:04:23.021Z,1000.56
2022-09-26T01:05:03.557Z,1000.57
2022-09-26T01:05:44.019Z,1000.61
2022-09-26T01:06:24.523Z,1000.59
2022-09-26T01:07:05.018Z,1000.53
2022-09-26T01:07:45.542Z,1000.51
2022-09-26T01:08:26.145Z,1000.56
2022-09-26T01:09:06.630Z,1000.53
2022-09-26T01:09:47.218Z,1000.55
2022-09-26T01:10:27.627Z,1000.55
2022-09-26T01:11:08.179Z,1000.57
2022-09-26T01:11:48.569Z,1000.59
2022-09-26T01:12:29.084Z,1000.58
2022-09-26T01:13:09.567Z,1000.58
2022-09-26T01:13:50.155Z,1000.58
2022-09-26T01:14:30.616Z,1000.57
2022-09-26T01:15:11.158Z,1000.5
2022-09-26T01:15:51.614Z,1000.51
2022-09-26T01:16:32.105Z,1000.46
2022-09-26T01:17:12.511Z,1000.48
2022-09-26T01:17:53.015Z,1000.46
2022-09-26T01:18:33.537Z,1000.49
2022-09-26T01:19:14.013Z,1000.48
2022-09-26T01:19:54.424Z,1000.44
2022-09-26T01:20:34.976Z,1000.44
2022-09-26T01:21:15.422Z,1000.41
2022-09-26T01:21:55.892Z,1000.41
2022-09-26T01:22:36.393Z,1000.38
2022-09-26T01:23:16.886Z,1000.35
2022-09-26T01:23:57.393Z,1000.36
2022-09-26T01:24:37.849Z,1000.37
2022-09-26T01:26:51.152Z,1000.34
2022-09-26T01:27:32.221Z,1000.34
2022-09-26T01:28:12.255Z,1000.32
2022-09-26T01:28:52.758Z,1000.3
2022-09-26T01:29:33.288Z,1000.27
2022-09-26T01:30:13.752Z,1000.26
2022-09-26T01:30:54.285Z,1000.26
2022-09-26T01:31:34.722Z,1000.24
2022-09-26T01:32:15.221Z,1000.22
2022-09-26T01:32:55.708Z,1000.25
2022-09-26T01:33:36.206Z,1000.21
2022-09-26T01:34:16.697Z,1000.22
2022-09-26T01:34:57.158Z,1000.17
2022-09-26T01:35:37.649Z,1000.17
2022-09-26T01:36:18.113Z,1000.18
2022-09-26T01:36:58.589Z,1000.19
2022-09-26T01:37:39.106Z,1000.21
2022-09-26T01:38:19.551Z,1000.19
2022-09-26T01:39:00.009Z,1000.19
2022-09-26T01:39:40.518Z,1000.15
2022-09-26T01:40:21.077Z,1000.16
2022-09-26T01:41:01.496Z,1000.14
2022-09-26T01:41:41.948Z,1000.12
2022-09-26T01:42:22.413Z,1000.17
2022-09-26T01:43:02.890Z,1000.14
2022-09-26T01:43:43.379Z,1000.16
2022-09-26T01:45:04.345Z,1000.08
2022-09-26T01:45:44.872Z,1000.09
2022-09-26T01:46:25.356Z,1000.07
2022-09-26T01:47:05.843Z,1000.04
2022-09-26T01:47:46.306Z,1000.06
2022-09-26T01:48:26.794Z,1000.03
2022-09-26T01:49:07.238Z,1000.06
2022-09-26T01:49:47.758Z,1000.04
2022-09-26T01:50:28.245Z,1000
2022-09-26T01:51:08.749Z,999.99
2022-09-26T01:51:49.162Z,1000.02
2022-09-26T01:52:29.669Z,999.99
2022-09-26T01:53:10.127Z,999.97
2022-09-26T01:53:50.656Z,1000.01
2022-09-26T01:55:11.649Z,999.98
2022-09-26T01:55:52.225Z,999.97
2022-09-26T01:56:32.698Z,1000.01
2022-09-26T01:57:13.149Z,999.98
2022-09-26T01:57:53.649Z,999.97
2022-09-26T01:58:34.132Z,999.99
2022-09-26T01:59:14.726Z,999.94
2022-09-26T01:59:55.864Z,999.9
2022-09-26T02:00:36.390Z,999.87
2022-09-26T02:01:16.903Z,999.86
2022-09-26T02:01:57.400Z,999.83
2022-09-26T02:02:37.897Z,999.81
2022-09-26T02:03:18.310Z,999.8
2022-09-26T02:03:58.776Z,999.83
2022-09-26T02:04:39.290Z,999.81
2022-09-26T02:05:19.832Z,999.78
2022-09-26T02:06:00.300Z,999.74
2022-09-26T02:06:40.745Z,999.76
2022-09-26T02:08:01.810Z,999.73
2022-09-26T02:08:42.276Z,999.77
2022-09-26T02:09:22.762Z,999.71
2022-09-26T02:10:03.225Z,999.73
2022-09-26T02:10:43.699Z,999.76
2022-09-26T02:11:24.190Z,999.73
2022-09-26T02:12:04.696Z,999.73
2022-09-26T02:12:45.190Z,999.72
2022-09-26T02:13:25.681Z,999.7
2022-09-26T02:14:06.158Z,999.7
2022-09-26T02:14:46.592Z,999.69
2022-09-26T02:15:27.072Z,999.67
2022-09-26T02:16:07.572Z,999.68
2022-09-26T02:16:48.151Z,999.65
2022-09-26T02:17:28.508Z,999.64
2022-09-26T02:18:09.097Z,999.67
2022-09-26T02:18:49.496Z,999.62
2022-09-26T02:19:29.986Z,999.62
2022-09-26T02:20:10.506Z,999.64
2022-09-26T02:20:51.002Z,999.65
2022-09-26T02:21:31.539Z,999.64
2022-09-26T02:22:11.954Z,999.65
2022-09-26T02:22:52.465Z,999.65
2022-09-26T02:23:32.900Z,999.59
2022-09-26T02:24:13.399Z,999.59
2022-09-26T02:24:53.849Z,999.59
2022-09-26T02:25:34.327Z,999.62
2022-09-26T02:26:14.847Z,999.57
2022-09-26T02:26:55.338Z,999.57
2022-09-26T02:27:35.832Z,999.55
2022-09-26T02:28:16.345Z,999.58
2022-09-26T02:28:56.840Z,999.54
2022-09-26T02:29:37.339Z,999.53
2022-09-26T02:30:17.784Z,999.5
2022-09-26T02:30:58.302Z,999.5
2022-09-26T02:31:38.866Z,999.48
2022-09-26T02:32:19.355Z,999.47
2022-09-26T02:32:59.821Z,999.45
2022-09-26T02:33:40.307Z,999.44
2022-09-26T02:34:20.780Z,999.45
2022-09-26T02:35:01.254Z,999.43
2022-09-26T02:35:41.770Z,999.45
2022-09-26T02:36:22.290Z,999.43
2022-09-26T02:37:02.789Z,999.45
2022-09-26T02:37:43.279Z,999.45
2022-09-26T02:38:23.745Z,999.42
2022-09-26T02:39:04.223Z,999.44
2022-09-26T02:39:44.676Z,999.4
2022-09-26T02:40:25.293Z,999.34
2022-09-26T02:41:05.667Z,999.32
2022-09-26T02:41:46.147Z,999.34
2022-09-26T02:42:26.713Z,999.3
2022-09-26T02:43:07.246Z,999.28
2022-09-26T02:43:47.676Z,999.26
2022-09-26T02:44:28.132Z,999.23
2022-09-26T02:45:08.643Z,999.21
2022-09-26T02:45:49.194Z,999.21
2022-09-26T02:46:29.670Z,999.2
2022-09-26T02:47:10.166Z,999.18
2022-09-26T02:47:50.632Z,999.23
2022-09-26T02:48:31.094Z,999.22
2022-09-26T02:49:11.707Z,999.16
2022-09-26T02:49:52.061Z,999.08
2022-09-26T02:50:33.626Z,999.08
2022-09-26T02:51:13.055Z,999.05
2022-09-26T02:51:53.562Z,999.04
2022-09-26T02:52:34.052Z,999
2022-09-26T02:53:14.534Z,999
2022-09-26T02:53:55.014Z,998.99
2022-09-26T02:54:35.541Z,999.01
2022-09-26T02:55:16.085Z,998.98
2022-09-26T02:55:56.442Z,999
2022-09-26T02:56:36.915Z,999
2022-09-26T02:57:17.444Z,999
2022-09-26T02:57:57.902Z,999.05
2022-09-26T02:58:38.373Z,999.01
2022-09-26T02:59:18.863Z,999.01
2022-09-26T02:59:59.300Z,999.03
2022-09-26T03:00:39.830Z,999.04
2022-09-26T03:01:20.350Z,999.04
2022-09-26T03:02:00.763Z,999.03
2022-09-26T03:02:41.224Z,999.01
2022-09-26T03:03:21.693Z,998.98
2022-09-26T03:04:02.121Z,998.94
2022-09-26T03:04:42.685Z,998.97
2022-09-26T03:05:23.090Z,998.93
2022-09-26T03:06:03.587Z,998.96
2022-09-26T03:06:44.065Z,998.92
2022-09-26T03:07:24.588Z,998.93
2022-09-26T03:08:05.007Z,998.9
2022-09-26T03:08:45.493Z,998.89
2022-09-26T03:09:25.918Z,998.89
2022-09-26T03:10:06.450Z,998.87
2022-09-26T03:10:46.930Z,998.87
2022-09-26T03:11:27.418Z,998.83
2022-09-26T03:12:07.843Z,998.8
2022-09-26T03:12:48.310Z,998.74
2022-09-26T03:13:28.780Z,998.76
2022-09-26T03:14:09.279Z,998.74
2022-09-26T03:14:50.353Z,998.74
2022-09-26T03:18:09.370Z,998.65
2022-09-26T03:18:49.827Z,998.64
2022-09-26T03:19:30.283Z,998.64
2022-09-26T03:20:10.863Z,998.61
2022-09-26T03:20:51.327Z,998.59
2022-09-26T03:21:34.909Z,998.59
2022-09-26T03:22:12.298Z,998.58
2022-09-26T03:22:52.734Z,998.61
2022-09-26T03:23:33.249Z,998.6
2022-09-26T03:24:13.701Z,998.58
2022-09-26T03:24:54.210Z,998.55
2022-09-26T03:25:34.738Z,998.54
2022-09-26T03:26:15.214Z,998.54
2022-09-26T03:26:55.641Z,998.53
2022-09-26T03:27:36.122Z,998.51
2022-09-26T03:28:16.593Z,998.52
2022-09-26T03:28:57.123Z,998.51
2022-09-26T03:29:37.634Z,998.49
2022-09-26T03:30:18.121Z,998.46
2022-09-26T03:30:58.602Z,998.46
2022-09-26T03:31:39.181Z,998.44
2022-09-26T03:32:19.558Z,998.43
2022-09-26T03:33:00.055Z,998.42
2022-09-26T03:33:40.553Z,998.39
2022-09-26T03:34:21.003Z,998.36
2022-09-26T03:35:01.494Z,998.36
2022-09-26T03:35:42.121Z,998.37
2022-09-26T03:36:23.412Z,998.37
2022-09-26T03:37:04.660Z,998.35
2022-09-26T03:37:46.157Z,998.33
2022-09-26T03:38:26.190Z,998.34
2022-09-26T03:39:06.771Z,998.31
2022-09-26T03:39:47.140Z,998.29
2022-09-26T03:40:27.799Z,998.28
2022-09-26T03:41:08.116Z,998.27
2022-09-26T03:41:48.621Z,998.28
2022-09-26T03:42:29.054Z,998.25
2022-09-26T03:43:09.524Z,998.24
2022-09-26T03:43:50.009Z,998.06
2022-09-26T03:44:30.477Z,998.22
2022-09-26T03:45:10.945Z,998.17
2022-09-26T03:45:51.468Z,998.19
2022-09-26T03:46:35.033Z,998.21
2022-09-26T03:47:12.338Z,998.17
2022-09-26T03:47:52.907Z,998.17
2022-09-26T03:48:33.299Z,998.14
2022-09-26T03:49:13.877Z,998.12
2022-09-26T03:49:54.261Z,998.08
2022-09-26T03:50:34.751Z,998.08
2022-09-26T03:51:15.311Z,998.08
2022-09-26T03:51:55.723Z,998.08
2022-09-26T03:52:36.210Z,998.08
2022-09-26T03:53:16.689Z,998.03
2022-09-26T03:53:57.173Z,998.05
2022-09-26T03:54:37.671Z,997.98
2022-09-26T03:55:18.178Z,998.01
2022-09-26T03:55:58.701Z,997.98
2022-09-26T03:56:39.299Z,997.98
2022-09-26T03:57:19.787Z,997.93
2022-09-26T03:58:40.751Z,997.92
2022-09-26T03:59:21.295Z,997.89
2022-09-26T04:00:01.748Z,997.87
2022-09-26T04:00:42.269Z,997.85
2022-09-26T04:01:22.777Z,997.86
2022-09-26T04:02:03.306Z,997.8
2022-09-26T04:02:43.873Z,997.8
2022-09-26T04:03:24.297Z,997.79
2022-09-26T04:04:04.765Z,997.73
2022-09-26T04:07:20.958Z,997.71
2022-09-26T04:08:02.181Z,997.71
2022-09-26T04:08:42.638Z,997.72
2022-09-26T04:09:23.363Z,997.68
2022-09-26T04:10:03.693Z,997.68
2022-09-26T04:10:44.183Z,997.67
2022-09-26T04:11:24.853Z,997.66
2022-09-26T04:12:05.173Z,997.63
2022-09-26T04:12:45.679Z,997.63
2022-09-26T04:13:49.874Z,997.67
2022-09-26T04:14:06.648Z,997.64
2022-09-26T04:14:47.151Z,997.65
2022-09-26T04:15:27.663Z,997.63
2022-09-26T04:16:08.199Z,997.63
2022-09-26T04:16:48.759Z,997.63
2022-09-26T04:17:29.194Z,997.58
2022-09-26T04:18:09.729Z,997.57
2022-09-26T04:18:50.169Z,997.53
2022-09-26T04:19:30.699Z,997.58
2022-09-26T04:20:11.236Z,997.57
2022-09-26T04:20:51.679Z,997.51
2022-09-26T04:21:32.180Z,997.44
2022-09-26T04:22:12.693Z,997.43
2022-09-26T04:22:53.210Z,997.4
2022-09-26T04:23:33.687Z,997.45
2022-09-26T04:24:14.200Z,997.39
2022-09-26T04:24:54.650Z,997.37
2022-09-26T04:25:35.148Z,997.35
2022-09-26T04:26:20.306Z,997.33
2022-09-26T04:26:56.415Z,997.35
2022-09-26T04:27:36.922Z,997.33
2022-09-26T04:28:17.467Z,997.3
2022-09-26T04:28:57.960Z,997.33
2022-09-26T04:29:38.472Z,997.29
2022-09-26T04:30:18.951Z,997.29
2022-09-26T04:30:59.466Z,997.27
2022-09-26T04:31:39.998Z,997.26
2022-09-26T04:32:20.510Z,997.25
2022-09-26T04:33:01.062Z,997.24
2022-09-26T04:33:41.512Z,997.25
2022-09-26T04:34:26.317Z,997.24
2022-09-26T04:35:02.519Z,997.27
2022-09-26T04:35:42.980Z,997.25
2022-09-26T04:36:23.511Z,997.25
2022-09-26T04:37:03.928Z,997.22
2022-09-26T04:37:44.442Z,997.23
2022-09-26T04:38:24.936Z,997.19
2022-09-26T04:39:05.465Z,997.25
2022-09-26T04:39:45.897Z,997.19
2022-09-26T04:40:26.424Z,997.17
2022-09-26T04:41:06.869Z,997.2
2022-09-26T04:41:47.374Z,997.15
2022-09-26T04:42:27.798Z,997.16
2022-09-26T04:43:08.322Z,997.13
2022-09-26T04:43:48.808Z,997.11
2022-09-26T04:44:29.486Z,997.08
2022-09-26T04:45:09.995Z,997.11
2022-09-26T04:45:50.579Z,997.07
2022-09-26T04:46:31.417Z,997.09
2022-09-26T04:47:12.504Z,997.06
2022-09-26T04:47:52.980Z,997.07
2022-09-26T04:48:33.505Z,997.06
2022-09-26T04:49:14.069Z,997.06
2022-09-26T04:49:54.465Z,997.01
2022-09-26T04:50:35.320Z,997.02
2022-09-26T04:51:15.713Z,997.01
2022-09-26T04:51:56.244Z,997
2022-09-26T04:52:36.701Z,996.99
2022-09-26T04:53:17.219Z,996.99
2022-09-26T04:53:58.316Z,996.97
2022-09-26T04:54:38.981Z,996.96
2022-09-26T04:57:37.791Z,996.92
2022-09-26T04:58:18.462Z,996.93
2022-09-26T04:58:59.671Z,996.93
2022-09-26T04:59:40.157Z,996.92
2022-09-26T05:00:20.869Z,996.92
2022-09-26T05:03:35.241Z,996.86
2022-09-26T05:04:15.687Z,996.87
2022-09-26T05:04:56.138Z,996.88
2022-09-26T05:05:36.633Z,996.87
2022-09-26T05:06:17.218Z,996.93
2022-09-26T05:06:57.950Z,996.85
2022-09-26T05:07:38.345Z,996.89
2022-09-26T05:08:59.521Z,996.88
2022-09-26T05:09:40.169Z,996.85
2022-09-26T05:10:20.608Z,996.84
2022-09-26T05:11:01.663Z,996.81
2022-09-26T05:11:42.628Z,996.84
2022-09-26T05:12:23.033Z,996.81
2022-09-26T05:13:03.635Z,996.83
2022-09-26T05:13:44.262Z,996.78
2022-09-26T05:14:24.812Z,996.79
2022-09-26T05:15:05.245Z,996.77
2022-09-26T05:16:26.469Z,996.78
2022-09-26T05:17:06.935Z,996.78
2022-09-26T05:17:47.387Z,996.78
2022-09-26T05:18:27.936Z,996.78
2022-09-26T05:19:08.498Z,996.76
2022-09-26T05:19:49.570Z,996.77
2022-09-26T05:20:30.393Z,996.77
2022-09-26T05:21:10.637Z,996.78
2022-09-26T05:21:51.394Z,996.72
2022-09-26T05:22:31.936Z,996.74
2022-09-26T05:23:12.546Z,996.74
2022-09-26T05:25:29.319Z,996.71
2022-09-26T05:26:09.530Z,996.73
2022-09-26T05:28:38.033Z,996.73
2022-09-26T05:29:18.932Z,996.72
2022-09-26T05:29:59.171Z,996.72
2022-09-26T05:30:39.785Z,996.71
2022-09-26T05:31:20.408Z,996.68
2022-09-26T05:32:01.033Z,996.68
2022-09-26T05:32:41.565Z,996.69
2022-09-26T05:33:21.996Z,996.63
2022-09-26T05:34:02.552Z,996.64
2022-09-26T05:34:43.005Z,996.63
2022-09-26T05:35:23.828Z,996.65
2022-09-26T05:36:06.070Z,996.64
2022-09-26T05:36:46.659Z,996.56
2022-09-26T05:37:27.571Z,996.54
2022-09-26T05:38:07.977Z,996.53
2022-09-26T05:38:48.532Z,996.56
2022-09-26T05:39:29.051Z,996.52
2022-09-26T05:40:09.584Z,996.4
2022-09-26T05:40:50.239Z,996.52
2022-09-26T05:42:11.341Z,996.49
2022-09-26T05:42:51.924Z,996.51
2022-09-26T05:43:32.491Z,996.44
2022-09-26T05:44:13.061Z,996.46
2022-09-26T05:44:53.637Z,996.42
2022-09-26T05:45:34.104Z,996.4
2022-09-26T05:46:14.719Z,996.38
2022-09-26T05:46:55.223Z,996.37
2022-09-26T05:47:36.527Z,996.39
2022-09-26T05:48:18.129Z,996.39
2022-09-26T05:48:58.595Z,996.35
2022-09-26T05:49:39.145Z,996.33
2022-09-26T05:50:19.897Z,996.33
2022-09-26T05:51:00.587Z,996.29
2022-09-26T05:52:24.703Z,996.33
2022-09-26T05:53:06.408Z,996.24
2022-09-26T06:32:00.971Z,995.76
2022-09-26T06:32:41.422Z,995.75
2022-09-26T06:33:22.678Z,995.74
2022-09-26T06:34:03.213Z,995.76
2022-09-26T06:34:43.774Z,995.72
2022-09-26T06:35:24.319Z,995.74
2022-09-26T06:36:04.886Z,995.72
2022-09-26T06:36:45.571Z,995.74
2022-09-26T06:37:26.941Z,995.78
2022-09-26T06:38:07.420Z,995.75
2022-09-26T06:38:48.157Z,995.66
2022-09-26T06:39:28.795Z,995.71
2022-09-26T06:40:09.430Z,995.7
2022-09-26T06:41:30.642Z,995.72
2022-09-26T06:42:11.130Z,995.72
2022-09-26T06:42:51.862Z,995.7
2022-09-26T06:43:32.273Z,995.66
2022-09-26T06:44:12.867Z,995.64
2022-09-26T06:44:53.315Z,995.68
2022-09-26T06:45:34.632Z,995.68
2022-09-26T06:46:15.394Z,995.67
2022-09-26T06:46:56.090Z,995.67
2022-09-26T06:47:36.622Z,995.64
2022-09-26T06:48:19.910Z,995.68
2022-09-26T06:48:57.818Z,995.62
2022-09-26T06:49:39.416Z,995.64
2022-09-26T06:50:19.932Z,995.6
2022-09-26T06:55:53.166Z,995.54
2022-09-26T06:56:35.121Z,995.53
2022-09-26T06:57:15.610Z,995.53
2022-09-26T06:57:56.137Z,995.54
2022-09-26T06:58:36.687Z,995.5
2022-09-26T06:59:19.879Z,995.54
2022-09-26T07:00:00.560Z,995.49
2022-09-26T07:00:41.383Z,995.49
2022-09-26T07:04:12.192Z,995.47
2022-09-26T07:04:54.641Z,995.44
2022-09-26T07:05:35.372Z,995.45
2022-09-26T07:06:16.638Z,995.38
2022-09-26T07:06:59.041Z,995.39
2022-09-26T07:07:42.600Z,995.37
2022-09-26T07:08:32.546Z,995.38
2022-09-26T07:09:06.540Z,995.35
2022-09-26T07:10:25.381Z,995.35
2022-09-26T07:11:30.992Z,995.35
2022-09-26T07:12:12.709Z,995.36
2022-09-26T07:12:29.112Z,995.34
2022-09-26T07:13:11.081Z,995.32
2022-09-26T07:13:51.897Z,995.29
2022-09-26T07:14:32.983Z,995.31
2022-09-26T07:15:13.683Z,995.29
2022-09-26T07:15:54.369Z,995.28
2022-09-26T07:16:35.034Z,995.25
2022-09-26T07:19:48.927Z,995.24
2022-09-26T07:20:30.119Z,995.23
2022-09-26T07:21:10.813Z,995.21
2022-09-26T07:21:51.249Z,995.19
2022-09-26T07:22:31.853Z,995.21
2022-09-26T07:23:12.369Z,995.25
2022-09-26T07:23:53.682Z,995.22
2022-09-26T07:24:34.342Z,995.21
2022-09-26T07:25:14.955Z,995.22
2022-09-26T07:25:55.510Z,995.18
2022-09-26T07:26:36.916Z,995.22
2022-09-26T07:27:17.624Z,995.21
2022-09-26T07:27:58.254Z,995.17
2022-09-26T07:28:38.805Z,995.19
2022-09-26T07:29:19.394Z,995.16
2022-09-26T07:30:00.827Z,995.15
2022-09-26T07:30:48.871Z,995.15
2022-09-26T07:31:30.856Z,995.16
2022-09-26T07:32:15.037Z,995.13
2022-09-26T07:36:52.963Z,995.16
2022-09-26T07:37:36.307Z,995.18
2022-09-26T07:38:17.459Z,995.18
2022-09-26T07:38:58.677Z,995.17
2022-09-26T07:41:14.429Z,995.12
2022-09-26T07:41:55.633Z,995.1
2022-09-26T07:42:36.209Z,995.1
2022-09-26T07:43:24.123Z,995.09
2022-09-26T07:44:53.211Z,995.01
2022-09-26T07:45:17.332Z,994.97
2022-09-26T07:45:29.200Z,995.02
2022-09-26T07:46:00.232Z,995.04
2022-09-26T07:46:40.937Z,995.05
2022-09-26T07:47:21.987Z,995.04
2022-09-26T07:48:02.944Z,995.02
2022-09-26T07:48:43.903Z,995
2022-09-26T07:49:24.270Z,994.97
2022-09-26T07:50:04.958Z,994.99
2022-09-26T07:52:26.337Z,994.97
2022-09-26T07:53:13.441Z,994.99
2022-09-26T07:55:31.214Z,994.98
2022-09-26T07:56:11.586Z,994.97
2022-09-26T07:56:52.273Z,994.96
2022-09-26T07:59:26.382Z,994.9
2022-09-26T08:00:07.782Z,994.9
2022-09-26T08:00:48.403Z,994.91
2022-09-26T08:01:29.079Z,994.9
2022-09-26T08:02:09.637Z,994.97
2022-09-26T08:02:50.267Z,994.92
2022-09-26T08:03:30.709Z,994.87
2022-09-26T08:04:12.137Z,994.87
2022-09-26T08:04:54.570Z,994.82
2022-09-26T08:05:33.651Z,994.86
2022-09-26T08:06:14.577Z,994.86
2022-09-26T08:06:55.079Z,994.82
2022-09-26T08:07:35.740Z,994.82
2022-09-26T08:08:16.704Z,994.8
2022-09-26T08:08:56.870Z,994.82
2022-09-26T08:09:37.418Z,994.83
2022-09-26T08:10:18.191Z,994.82
2022-09-26T08:11:02.939Z,994.79
2022-09-26T08:11:39.213Z,994.77
2022-09-26T08:12:19.819Z,994.81
2022-09-26T08:13:00.477Z,994.76
2022-09-26T08:13:41.029Z,994.75
2022-09-26T08:14:21.521Z,994.75
2022-09-26T08:15:02.522Z,994.74
2022-09-26T08:15:42.885Z,994.71
2022-09-26T08:16:23.752Z,994.75
2022-09-26T08:17:04.041Z,994.7
2022-09-26T08:17:44.805Z,994.72
2022-09-26T08:18:25.362Z,994.73
2022-09-26T08:19:05.929Z,994.73
2022-09-26T08:19:46.498Z,994.71
2022-09-26T08:20:31.367Z,994.73
2022-09-26T08:21:07.993Z,994.68
2022-09-26T08:21:48.764Z,994.71
2022-09-26T08:22:29.174Z,994.74
2022-09-26T08:23:10.476Z,994.73
2022-09-26T08:23:52.496Z,994.67
2022-09-26T08:24:34.279Z,994.68
2022-09-26T08:25:14.353Z,994.74
2022-09-26T08:25:55.178Z,994.69
2022-09-26T08:26:39.296Z,994.72
2022-09-26T08:27:17.247Z,994.73
2022-09-26T08:27:58.188Z,994.68
2022-09-26T08:28:39.601Z,994.69
2022-09-26T08:29:20.292Z,994.69
2022-09-26T08:30:00.958Z,994.63
2022-09-26T08:30:42.881Z,994.71
2022-09-26T08:31:23.609Z,994.74
2022-09-26T08:32:04.203Z,994.66
2022-09-26T08:32:45.055Z,994.66
2022-09-26T08:33:26.010Z,994.66
2022-09-26T08:34:07.433Z,994.7
2022-09-26T08:34:48.088Z,994.67
2022-09-26T08:35:28.834Z,994.6
2022-09-26T08:36:09.930Z,994.61
2022-09-26T08:36:51.298Z,994.58
2022-09-26T08:37:32.408Z,994.64
2022-09-26T08:38:13.802Z,994.64
2022-09-26T08:38:54.561Z,994.62
2022-09-26T08:39:35.798Z,994.53
2022-09-26T08:40:17.186Z,994.59
2022-09-26T08:40:57.737Z,994.57
2022-09-26T08:41:38.354Z,994.57
2022-09-26T08:42:18.947Z,994.58
2022-09-26T08:43:00.135Z,994.62
2022-09-26T08:43:40.779Z,994.63
2022-09-26T08:44:21.910Z,994.68
2022-09-26T08:45:03.012Z,994.59
2022-09-26T08:45:47.444Z,994.61
2022-09-26T08:46:24.152Z,994.64
2022-09-26T08:47:05.470Z,994.63
2022-09-26T08:47:53.486Z,994.6
2022-09-26T08:48:32.268Z,994.62
2022-09-26T08:49:12.883Z,994.66
2022-09-26T08:49:54.321Z,994.62
2022-09-26T08:50:35.001Z,994.58
2022-09-26T08:51:16.875Z,994.64
2022-09-26T08:51:57.631Z,994.65
2022-09-26T08:52:38.538Z,994.64
2022-09-26T08:53:18.971Z,994.57
2022-09-26T08:53:59.425Z,994.56
2022-09-26T08:54:40.476Z,994.57
2022-09-26T08:55:21.077Z,994.58
2022-09-26T08:56:02.286Z,994.57
2022-09-26T08:56:42.788Z,994.63
2022-09-26T08:57:23.388Z,994.66
2022-09-26T08:58:04.003Z,994.64
2022-09-26T08:58:44.508Z,994.65
2022-09-26T08:59:25.003Z,994.64
2022-09-26T09:00:05.561Z,994.63
2022-09-26T09:00:46.124Z,994.6
2022-09-26T09:01:27.942Z,994.66
2022-09-26T09:02:08.546Z,994.56
2022-09-26T09:03:30.694Z,994.55
2022-09-26T09:04:11.138Z,994.52
2022-09-26T09:04:54.007Z,994.55
2022-09-26T09:05:32.140Z,994.52
2022-09-26T09:06:12.690Z,994.51
2022-09-26T09:06:53.126Z,994.53
2022-09-26T09:07:33.694Z,994.55
2022-09-26T09:08:15.288Z,994.53
2022-09-26T09:08:56.155Z,994.49
2022-09-26T09:09:36.630Z,994.5
2022-09-26T09:10:19.891Z,994.55
2022-09-26T09:11:40.920Z,994.59
2022-09-26T09:12:23.907Z,994.52
2022-09-26T09:13:02.121Z,994.49
2022-09-26T09:13:42.657Z,994.46
2022-09-26T09:14:23.209Z,994.48
2022-09-26T09:15:23.845Z,994.46
2022-09-26T09:15:44.376Z,994.47
2022-09-26T09:16:24.934Z,994.44
2022-09-26T09:17:05.363Z,994.46
2022-09-26T09:17:45.828Z,994.45
2022-09-26T09:18:26.411Z,994.37
2022-09-26T09:19:06.917Z,994.34
2022-09-26T09:19:47.400Z,994.39
2022-09-26T09:20:27.889Z,994.32
2022-09-26T09:21:08.444Z,994.36
2022-09-26T09:21:48.950Z,994.31
2022-09-26T09:23:10.023Z,994.28
2022-09-26T09:23:50.803Z,994.28
2022-09-26T09:24:31.233Z,994.26
2022-09-26T09:25:11.794Z,994.24
2022-09-26T09:25:53.577Z,994.27
2022-09-26T09:28:01.387Z,994.2
2022-09-26T09:28:40.253Z,994.17
2022-09-26T09:29:20.725Z,994.15
2022-09-26T09:30:01.372Z,994.25
2022-09-26T09:30:42.005Z,994.21
2022-09-26T09:31:22.530Z,994.15
2022-09-26T09:32:03.047Z,994.13
2022-09-26T09:35:04.517Z,994.09
2022-09-26T09:35:47.565Z,994.13
2022-09-26T09:36:28.763Z,994.14
2022-09-26T09:37:09.723Z,994.13
2022-09-26T09:37:50.872Z,994.14
2022-09-26T09:38:32.727Z,994.12
2022-09-26T09:39:14.127Z,994.15
2022-09-26T09:39:55.335Z,994.07
2022-09-26T09:40:36.481Z,994.13
2022-09-26T09:41:17.924Z,994.08
2022-09-26T09:41:59.928Z,994.12
2022-09-26T09:42:41.040Z,994.02
2022-09-26T09:43:22.147Z,994.03
2022-09-26T09:48:27.096Z,993.95
2022-09-26T09:49:08.498Z,994.01
2022-09-26T09:49:50.018Z,993.92
2022-09-26T09:50:46.261Z,993.89
2022-09-26T09:54:44.582Z,993.89
2022-09-26T09:55:23.964Z,993.83
2022-09-26T09:56:06.111Z,993.8
2022-09-26T09:56:46.442Z,993.75
2022-09-26T09:57:27.666Z,993.81
2022-09-26T09:58:08.609Z,993.85
2022-09-26T10:00:41.463Z,993.82
2022-09-26T10:01:29.193Z,993.85
2022-09-26T10:02:10.471Z,993.83
2022-09-26T10:02:50.983Z,993.83
2022-09-26T10:03:31.512Z,993.79
2022-09-26T10:04:12.244Z,993.73
2022-09-26T10:04:52.652Z,993.74
2022-09-26T10:05:33.252Z,993.77
2022-09-26T10:06:43.994Z,993.73
2022-09-26T10:06:54.368Z,993.77
2022-09-26T10:07:34.947Z,993.78
2022-09-26T10:08:15.557Z,993.73
2022-09-26T10:08:56.063Z,993.79
2022-09-26T10:09:39.773Z,993.79
2022-09-26T10:10:17.251Z,993.78
2022-09-26T10:11:00.330Z,993.72
2022-09-26T10:11:41.970Z,993.72
2022-09-26T10:12:24.237Z,993.71
2022-09-26T10:14:38.055Z,993.67
2022-09-26T10:15:18.783Z,993.7
2022-09-26T10:15:59.894Z,993.68
2022-09-26T10:16:42.193Z,993.7
2022-09-26T10:17:24.687Z,993.61
2022-09-26T10:18:23.866Z,993.59
2022-09-26T10:18:48.480Z,993.64
2022-09-26T10:19:29.386Z,993.6
2022-09-26T10:20:10.468Z,993.58
2022-09-26T10:23:44.701Z,993.59
2022-09-26T10:24:25.251Z,993.58
2022-09-26T10:25:05.811Z,993.56
2022-09-26T10:25:46.698Z,993.5
2022-09-26T10:26:31.219Z,993.5
2022-09-26T10:27:07.856Z,993.5
2022-09-26T10:27:48.548Z,993.5
2022-09-26T10:28:31.149Z,993.5
2022-09-26T10:35:02.099Z,993.28
2022-09-26T10:35:43.285Z,993.35
2022-09-26T10:36:24.233Z,993.32
2022-09-26T10:37:05.822Z,993.35
2022-09-26T10:37:46.998Z,993.26
2022-09-26T10:38:30.051Z,993.28
2022-09-26T10:39:11.825Z,993.25
2022-09-26T10:39:52.659Z,993.28
2022-09-26T10:40:34.206Z,993.23
2022-09-26T10:41:15.562Z,993.22
2022-09-26T10:41:56.448Z,993.16
2022-09-26T10:42:37.261Z,993.17
2022-09-26T10:43:18.656Z,993.14
2022-09-26T10:43:59.747Z,993.14
2022-09-26T10:44:41.474Z,993.09
2022-09-26T10:45:25.494Z,993.08
2022-09-26T10:46:07.873Z,993.09
2022-09-26T10:46:51.662Z,993.09
2022-09-26T10:47:35.834Z,993.08
2022-09-26T10:50:37.049Z,993.01
2022-09-26T10:51:18.196Z,992.92
2022-09-26T10:52:00.984Z,992.94
2022-09-26T10:52:39.535Z,992.96